sensor_id;sensor_type;location;lat;lon;timestamp;P1;durP1;ratioP1;P2;durP2;ratioP2
64242;SDS011;50573;51.512;5.386;2023-08-07T00:06:14;13.68;;;4.00;;
64242;SDS011;50573;51.512;5.386;2023-08-07T00:16:18;12.85;;;3.33;;
64242;SDS011;50573;51.512;5.386;2023-08-07T00:26:21;20.38;;;3.90;;
64242;SDS011;50573;51.512;5.386;2023-08-07T00:36:26;19.48;;;3.75;;
64242;SDS011;50573;51.512;5.386;2023-08-07T00:46:30;11.73;;;2.85;;
64242;SDS011;50573;51.512;5.386;2023-08-07T00:56:34;17.30;;;3.28;;
64242;SDS011;50573;51.512;5.386;2023-08-07T01:16:44;15.68;;;4.20;;
64242;SDS011;50573;51.512;5.386;2023-08-07T01:26:51;18.60;;;4.07;;
64242;SDS011;50573;51.512;5.386;2023-08-07T01:37:00;19.17;;;4.07;;
64242;SDS011;50573;51.512;5.386;2023-08-07T01:47:06;11.85;;;3.17;;
64242;SDS011;50573;51.512;5.386;2023-08-07T01:57:09;16.33;;;4.00;;
64242;SDS011;50573;51.512;5.386;2023-08-07T02:07:14;18.98;;;4.32;;
64242;SDS011;50573;51.512;5.386;2023-08-07T02:17:20;16.20;;;3.35;;
64242;SDS011;50573;51.512;5.386;2023-08-07T02:27:24;13.50;;;3.58;;
64242;SDS011;50573;51.512;5.386;2023-08-07T02:37:27;24.33;;;4.38;;
64242;SDS011;50573;51.512;5.386;2023-08-07T02:47:33;13.40;;;3.57;;
64242;SDS011;50573;51.512;5.386;2023-08-07T02:57:36;14.70;;;3.90;;
64242;SDS011;50573;51.512;5.386;2023-08-07T03:07:41;11.48;;;3.78;;
64242;SDS011;50573;51.512;5.386;2023-08-07T03:17:44;11.70;;;3.92;;
64242;SDS011;50573;51.512;5.386;2023-08-07T03:27:48;15.25;;;4.18;;
64242;SDS011;50573;51.512;5.386;2023-08-07T03:37:51;13.60;;;4.50;;
64242;SDS011;50573;51.512;5.386;2023-08-07T03:47:56;19.98;;;4.65;;
64242;SDS011;50573;51.512;5.386;2023-08-07T03:57:59;13.88;;;5.00;;
64242;SDS011;50573;51.512;5.386;2023-08-07T04:08:04;21.27;;;4.40;;
64242;SDS011;50573;51.512;5.386;2023-08-07T04:18:07;18.75;;;4.47;;
64242;SDS011;50573;51.512;5.386;2023-08-07T04:28:11;11.70;;;3.90;;
64242;SDS011;50573;51.512;5.386;2023-08-07T04:38:14;15.75;;;4.63;;
64242;SDS011;50573;51.512;5.386;2023-08-07T04:48:19;11.68;;;3.67;;
64242;SDS011;50573;51.512;5.386;2023-08-07T04:58:30;13.05;;;3.50;;
64242;SDS011;50573;51.512;5.386;2023-08-07T05:08:45;8.70;;;3.17;;
64242;SDS011;50573;51.512;5.386;2023-08-07T05:18:52;12.40;;;2.90;;
64242;SDS011;50573;51.512;5.386;2023-08-07T05:28:57;15.15;;;3.53;;
64242;SDS011;50573;51.512;5.386;2023-08-07T05:39:00;19.83;;;3.70;;
64242;SDS011;50573;51.512;5.386;2023-08-07T05:49:06;17.75;;;3.20;;
64242;SDS011;50573;51.512;5.386;2023-08-07T05:59:09;13.20;;;2.83;;
64242;SDS011;50573;51.512;5.386;2023-08-07T06:09:14;12.93;;;3.47;;
64242;SDS011;50573;51.512;5.386;2023-08-07T06:29:34;12.70;;;3.27;;
64242;SDS011;50573;51.512;5.386;2023-08-07T06:39:36;12.65;;;2.60;;
64242;SDS011;50573;51.512;5.386;2023-08-07T06:49:41;14.18;;;2.63;;
64242;SDS011;50573;51.512;5.386;2023-08-07T06:59:46;12.70;;;2.85;;
64242;SDS011;50573;51.512;5.386;2023-08-07T07:09:51;15.90;;;3.85;;
64242;SDS011;50573;51.512;5.386;2023-08-07T07:19:54;14.63;;;2.72;;
64242;SDS011;50573;51.512;5.386;2023-08-07T07:29:59;11.70;;;2.50;;
64242;SDS011;50573;51.512;5.386;2023-08-07T07:40:02;17.88;;;2.45;;
64242;SDS011;50573;51.512;5.386;2023-08-07T07:50:08;14.60;;;2.97;;
64242;SDS011;50573;51.512;5.386;2023-08-07T08:00:12;14.25;;;2.97;;
64242;SDS011;50573;51.512;5.386;2023-08-07T08:10:17;10.00;;;2.78;;
64242;SDS011;50573;51.512;5.386;2023-08-07T08:20:21;8.23;;;1.88;;
64242;SDS011;50573;51.512;5.386;2023-08-07T08:30:27;12.88;;;2.60;;
64242;SDS011;50573;51.512;5.386;2023-08-07T08:40:42;6.22;;;1.63;;
64242;SDS011;50573;51.512;5.386;2023-08-07T08:50:50;8.40;;;1.83;;
64242;SDS011;50573;51.512;5.386;2023-08-07T09:00:59;9.25;;;2.35;;
64242;SDS011;50573;51.512;5.386;2023-08-07T09:11:06;6.60;;;1.88;;
64242;SDS011;50573;51.512;5.386;2023-08-07T09:21:11;6.50;;;2.00;;
64242;SDS011;50573;51.512;5.386;2023-08-07T09:31:19;7.85;;;1.98;;
64242;SDS011;50573;51.512;5.386;2023-08-07T09:41:26;5.15;;;1.60;;
64242;SDS011;50573;51.512;5.386;2023-08-07T09:51:36;7.85;;;2.60;;
64242;SDS011;50573;51.512;5.386;2023-08-07T10:01:45;8.80;;;2.03;;
64242;SDS011;50573;51.512;5.386;2023-08-07T10:11:54;7.60;;;2.20;;
64242;SDS011;50573;51.512;5.386;2023-08-07T10:22:02;9.40;;;2.15;;
64242;SDS011;50573;51.512;5.386;2023-08-07T10:32:08;6.43;;;1.67;;
64242;SDS011;50573;51.512;5.386;2023-08-07T10:42:13;4.95;;;1.85;;
64242;SDS011;50573;51.512;5.386;2023-08-07T10:52:25;12.30;;;2.05;;
64242;SDS011;50573;51.512;5.386;2023-08-07T11:02:33;4.20;;;1.85;;
64242;SDS011;50573;51.512;5.386;2023-08-07T11:12:43;6.80;;;1.88;;
64242;SDS011;50573;51.512;5.386;2023-08-07T11:22:50;6.75;;;2.05;;
64242;SDS011;50573;51.512;5.386;2023-08-07T11:32:58;12.02;;;2.63;;
64242;SDS011;50573;51.512;5.386;2023-08-07T11:43:06;8.20;;;2.22;;
64242;SDS011;50573;51.512;5.386;2023-08-07T11:53:15;9.73;;;2.60;;
64242;SDS011;50573;51.512;5.386;2023-08-07T12:03:26;7.15;;;2.45;;
64242;SDS011;50573;51.512;5.386;2023-08-07T12:13:33;4.90;;;1.73;;
64242;SDS011;50573;51.512;5.386;2023-08-07T12:23:39;8.23;;;2.85;;
64242;SDS011;50573;51.512;5.386;2023-08-07T12:33:51;11.35;;;3.42;;
64242;SDS011;50573;51.512;5.386;2023-08-07T12:43:56;10.15;;;3.38;;
64242;SDS011;50573;51.512;5.386;2023-08-07T12:54:11;7.13;;;2.67;;
64242;SDS011;50573;51.512;5.386;2023-08-07T13:04:15;6.40;;;2.78;;
64242;SDS011;50573;51.512;5.386;2023-08-07T13:14:24;7.65;;;2.58;;
64242;SDS011;50573;51.512;5.386;2023-08-07T13:24:31;9.88;;;3.05;;
64242;SDS011;50573;51.512;5.386;2023-08-07T13:34:43;8.30;;;2.60;;
64242;SDS011;50573;51.512;5.386;2023-08-07T13:44:57;4.90;;;1.90;;
64242;SDS011;50573;51.512;5.386;2023-08-07T13:55:02;6.03;;;2.33;;
64242;SDS011;50573;51.512;5.386;2023-08-07T14:05:06;4.97;;;2.40;;
64242;SDS011;50573;51.512;5.386;2023-08-07T14:15:13;6.40;;;2.53;;
64242;SDS011;50573;51.512;5.386;2023-08-07T14:25:17;6.35;;;2.60;;
64242;SDS011;50573;51.512;5.386;2023-08-07T14:35:31;8.73;;;2.88;;
64242;SDS011;50573;51.512;5.386;2023-08-07T14:45:34;5.90;;;2.50;;
64242;SDS011;50573;51.512;5.386;2023-08-07T14:55:45;6.43;;;2.15;;
64242;SDS011;50573;51.512;5.386;2023-08-07T15:05:54;2.60;;;1.58;;
64242;SDS011;50573;51.512;5.386;2023-08-07T15:16:01;3.05;;;1.55;;
64242;SDS011;50573;51.512;5.386;2023-08-07T15:26:13;3.60;;;1.50;;
64242;SDS011;50573;51.512;5.386;2023-08-07T15:36:27;4.03;;;1.70;;
64242;SDS011;50573;51.512;5.386;2023-08-07T15:46:30;3.63;;;1.63;;
64242;SDS011;50573;51.512;5.386;2023-08-07T15:56:36;4.63;;;1.50;;
64242;SDS011;50573;51.512;5.386;2023-08-07T16:06:43;2.72;;;1.30;;
64242;SDS011;50573;51.512;5.386;2023-08-07T16:17:02;5.53;;;1.63;;
64242;SDS011;50573;51.512;5.386;2023-08-07T16:27:06;3.75;;;1.25;;
64242;SDS011;50573;51.512;5.386;2023-08-07T16:37:11;3.35;;;1.55;;
64242;SDS011;50573;51.512;5.386;2023-08-07T16:47:17;3.50;;;1.42;;
64242;SDS011;50573;51.512;5.386;2023-08-07T17:07:33;3.08;;;1.80;;
64242;SDS011;50573;51.512;5.386;2023-08-07T17:17:47;2.47;;;1.40;;
64242;SDS011;50573;51.512;5.386;2023-08-07T17:27:52;2.08;;;1.10;;
64242;SDS011;50573;51.512;5.386;2023-08-07T17:37:58;3.13;;;1.02;;
64242;SDS011;50573;51.512;5.386;2023-08-07T17:48:02;5.10;;;2.00;;
64242;SDS011;50573;51.512;5.386;2023-08-07T18:08:28;7.70;;;2.08;;
64242;SDS011;50573;51.512;5.386;2023-08-07T18:18:34;2.28;;;1.65;;
64242;SDS011;50573;51.512;5.386;2023-08-07T18:28:41;6.97;;;1.70;;
64242;SDS011;50573;51.512;5.386;2023-08-07T18:48:57;6.10;;;2.20;;
64242;SDS011;50573;51.512;5.386;2023-08-07T18:59:07;3.40;;;2.05;;
64242;SDS011;50573;51.512;5.386;2023-08-07T19:09:10;5.80;;;2.08;;
64242;SDS011;50573;51.512;5.386;2023-08-07T19:19:15;8.27;;;2.50;;
64242;SDS011;50573;51.512;5.386;2023-08-07T19:29:19;5.22;;;2.92;;
64242;SDS011;50573;51.512;5.386;2023-08-07T19:39:23;5.83;;;2.27;;
64242;SDS011;50573;51.512;5.386;2023-08-07T19:49:27;8.70;;;3.15;;
64242;SDS011;50573;51.512;5.386;2023-08-07T19:59:34;5.60;;;2.30;;
64242;SDS011;50573;51.512;5.386;2023-08-07T20:09:37;3.67;;;2.20;;
64242;SDS011;50573;51.512;5.386;2023-08-07T20:19:41;4.47;;;2.70;;
64242;SDS011;50573;51.512;5.386;2023-08-07T20:29:44;5.10;;;2.80;;
64242;SDS011;50573;51.512;5.386;2023-08-07T20:39:49;12.13;;;3.10;;
64242;SDS011;50573;51.512;5.386;2023-08-07T20:49:52;8.38;;;3.33;;
64242;SDS011;50573;51.512;5.386;2023-08-07T20:59:56;9.88;;;4.15;;
64242;SDS011;50573;51.512;5.386;2023-08-07T21:09:59;10.45;;;4.28;;
64242;SDS011;50573;51.512;5.386;2023-08-07T21:20:04;8.98;;;4.05;;
64242;SDS011;50573;51.512;5.386;2023-08-07T21:30:09;10.13;;;4.47;;
64242;SDS011;50573;51.512;5.386;2023-08-07T21:50:17;7.05;;;4.85;;
64242;SDS011;50573;51.512;5.386;2023-08-07T22:00:22;10.02;;;5.22;;
64242;SDS011;50573;51.512;5.386;2023-08-07T22:10:26;7.82;;;5.47;;
64242;SDS011;50573;51.512;5.386;2023-08-07T22:20:30;7.63;;;4.80;;
64242;SDS011;50573;51.512;5.386;2023-08-07T22:30:33;10.40;;;5.10;;
64242;SDS011;50573;51.512;5.386;2023-08-07T22:40:38;7.55;;;4.50;;
64242;SDS011;50573;51.512;5.386;2023-08-07T22:50:41;7.68;;;4.72;;
64242;SDS011;50573;51.512;5.386;2023-08-07T23:00:45;9.82;;;3.67;;
64242;SDS011;50573;51.512;5.386;2023-08-07T23:10:48;7.05;;;4.28;;
64242;SDS011;50573;51.512;5.386;2023-08-07T23:20:54;7.07;;;3.67;;
64242;SDS011;50573;51.512;5.386;2023-08-07T23:30:57;9.80;;;4.07;;
64242;SDS011;50573;51.512;5.386;2023-08-07T23:41:02;7.03;;;3.38;;
64242;SDS011;50573;51.512;5.386;2023-08-07T23:51:05;8.02;;;3.88;;
